Time;durP1;ratioP1;P1;durP2;ratioP2;P2;SDS_P1;SDS_P2;PMS_P1;PMS_P2;Temp;Humidity;BMP_temperature;BMP_pressure;BME280_temperature;BME280_humidity;BME280_pressure;Samples;Min_cycle;Max_cycle;Signal;HPM_P1;HPM_P2
2021/12/21 00:00:13;;;;;;;13.82;5.47;;;0.90;68.00;;;;;;2358209;52;20939;-75
2021/12/21 00:02:41;;;;;;;13.35;5.75;;;0.80;67.90;;;;;;2369607;53;20901;-75
2021/12/21 00:05:09;;;;;;;13.25;5.43;;;0.80;68.00;;;;;;2377021;52;21791;-75
2021/12/21 00:07:36;;;;;;;12.52;5.53;;;0.80;68.10;;;;;;2392646;52;21691;-76
2021/12/21 00:10:02;;;;;;;13.45;5.53;;;0.80;68.10;;;;;;2413484;52;21004;-75
2021/12/21 00:12:32;;;;;;;9.82;4.30;;;0.80;68.00;;;;;;2373415;52;20948;-75
2021/12/21 00:15:16;;;;;;;9.55;4.35;;;0.70;67.90;;;;;;2389872;52;21024;-76
2021/12/21 00:17:55;;;;;;;9.95;4.25;;;0.70;68.00;;;;;;2540251;52;20945;-75
2021/12/21 00:20:45;;;;;;;9.57;4.28;;;0.70;67.90;;;;;;2371802;54;20988;-76
2021/12/21 00:23:35;;;;;;;11.00;3.95;;;0.70;68.00;;;;;;2447119;52;20909;-75
2021/12/21 00:26:06;;;;;;;8.68;3.80;;;0.70;68.20;;;;;;2358214;53;20984;-75
2021/12/21 00:28:39;;;;;;;7.77;3.80;;;0.70;68.20;;;;;;2359722;53;21003;-76
2021/12/21 00:31:06;;;;;;;10.90;5.00;;;0.70;68.20;;;;;;2361894;53;20976;-75
2021/12/21 00:33:32;;;;;;;8.43;3.47;;;0.60;68.20;;;;;;2465477;52;21568;-76
2021/12/21 00:36:00;;;;;;;7.68;3.70;;;0.60;68.20;;;;;;2370659;54;21012;-75
2021/12/21 00:38:27;;;;;;;9.63;3.42;;;0.60;68.40;;;;;;2602668;52;20984;-75
2021/12/21 00:40:54;;;;;;;8.80;3.53;;;0.60;68.40;;;;;;2374705;52;20994;-75
2021/12/21 00:43:20;;;;;;;7.35;2.85;;;0.60;68.40;;;;;;2352545;53;20936;-76
2021/12/21 00:45:46;;;;;;;8.75;3.50;;;0.60;68.50;;;;;;2461035;52;20960;-76
2021/12/21 00:48:15;;;;;;;8.15;3.53;;;0.60;68.50;;;;;;2409662;52;20925;-75
2021/12/21 00:50:41;;;;;;;8.55;3.15;;;0.60;68.50;;;;;;2372916;54;20909;-76
2021/12/21 00:53:07;;;;;;;8.95;3.33;;;0.60;68.50;;;;;;2362575;53;20948;-76
2021/12/21 00:55:33;;;;;;;6.97;2.97;;;0.60;68.40;;;;;;2361221;53;21047;-75
2021/12/21 00:58:00;;;;;;;8.85;3.28;;;0.60;68.30;;;;;;2353587;53;21043;-75
2021/12/21 01:00:26;;;;;;;9.73;3.80;;;0.60;68.20;;;;;;2550018;52;20956;-76
2021/12/21 01:02:53;;;;;;;8.60;3.70;;;0.60;68.10;;;;;;2427081;52;22250;-76
2021/12/21 01:05:31;;;;;;;11.77;4.43;;;0.60;68.00;;;;;;2358792;53;20988;-75
2021/12/21 01:07:59;;;;;;;10.75;4.60;;;0.50;67.90;;;;;;2624721;52;20964;-76
2021/12/21 01:15:09;;;;;;;12.02;5.15;;;0.50;67.80;;;;;;2439606;52;20996;-76
2021/12/21 01:17:50;;;;;;;9.30;3.87;;;0.50;67.80;;;;;;2369202;53;20964;-76
2021/12/21 01:20:34;;;;;;;12.07;4.12;;;0.50;67.90;;;;;;2596159;52;20937;-76
2021/12/21 01:29:15;;;;;;;9.80;4.32;;;0.40;67.80;;;;;;2547043;52;20928;-75
2021/12/21 01:37:01;;;;;;;8.30;3.28;;;0.30;67.70;;;;;;2455714;52;20909;-76
2021/12/21 01:49:50;;;;;;;8.32;3.33;;;0.20;67.60;;;;;;2372051;54;21018;-75
2021/12/21 01:52:19;;;;;;;7.95;3.30;;;0.20;67.70;;;;;;2350858;53;20956;-76
2021/12/21 01:54:45;;;;;;;6.60;3.08;;;0.10;67.70;;;;;;2402482;52;21675;-75
2021/12/21 01:57:12;;;;;;;8.00;3.50;;;0.10;67.80;;;;;;2352197;52;20983;-76
2021/12/21 01:59:39;;;;;;;6.62;3.08;;;0.10;67.90;;;;;;2372234;54;20936;-76
2021/12/21 02:02:06;;;;;;;7.37;2.85;;;0.10;68.00;;;;;;2352710;54;20940;-76
2021/12/21 02:04:33;;;;;;;9.13;3.95;;;0.10;68.00;;;;;;2433560;52;20941;-76
2021/12/21 02:06:59;;;;;;;10.32;3.47;;;0.10;68.00;;;;;;2354599;53;20928;-76
2021/12/21 02:09:33;;;;;;;10.82;3.58;;;0.10;67.90;;;;;;2352779;53;20988;-76
2021/12/21 02:11:59;;;;;;;8.70;3.95;;;0.10;67.90;;;;;;2370635;53;20956;-75
2021/12/21 02:14:29;;;;;;;6.20;2.67;;;0.00;67.80;;;;;;2365387;53;21032;-76
2021/12/21 02:17:29;;;;;;;7.03;2.90;;;0.00;67.80;;;;;;2352259;53;20909;-75
2021/12/21 02:20:06;;;;;;;6.37;2.53;;;0.00;67.80;;;;;;2611805;52;21540;-75
2021/12/21 02:22:36;;;;;;;5.72;2.55;;;0.00;67.90;;;;;;2481919;52;21008;-75
2021/12/21 02:25:20;;;;;;;6.18;2.80;;;0.00;68.10;;;;;;2381244;52;20948;-75
2021/12/21 02:27:59;;;;;;;6.93;2.30;;;0.00;68.10;;;;;;2491151;52;21419;-76
2021/12/21 02:30:26;;;;;;;5.32;2.30;;;0.00;68.00;;;;;;2540536;52;20913;-76
2021/12/21 02:32:52;;;;;;;8.32;2.70;;;0.00;68.10;;;;;;2449334;52;21016;-76
2021/12/21 02:35:18;;;;;;;9.18;2.80;;;0.00;68.10;;;;;;2532414;52;21500;-75
2021/12/21 02:37:45;;;;;;;8.45;2.78;;;0.00;68.10;;;;;;2436933;52;20936;-75
2021/12/21 02:40:11;;;;;;;6.65;2.95;;;0.00;68.20;;;;;;2370403;54;21050;-76
2021/12/21 02:42:37;;;;;;;5.93;2.42;;;0.00;68.20;;;;;;2348022;53;20959;-76
2021/12/21 02:45:05;;;;;;;7.40;2.90;;;0.00;68.20;;;;;;2360227;53;21012;-75
2021/12/21 02:47:31;;;;;;;6.15;2.67;;;-0.10;68.00;;;;;;2454306;52;20967;-76
2021/12/21 02:50:00;;;;;;;7.47;3.47;;;-0.10;67.90;;;;;;2372258;54;21051;-76
2021/12/21 02:52:26;;;;;;;8.55;3.30;;;-0.10;67.90;;;;;;2368891;53;22009;-76
2021/12/21 02:54:52;;;;;;;7.22;3.08;;;-0.10;67.90;;;;;;2497837;52;20948;-76
2021/12/21 02:57:18;;;;;;;7.60;3.12;;;-0.10;67.90;;;;;;2419185;52;21745;-76
2021/12/21 02:59:45;;;;;;;9.63;3.60;;;-0.10;67.90;;;;;;2391676;52;20905;-76
2021/12/21 03:02:11;;;;;;;7.85;3.25;;;-0.10;67.90;;;;;;2384204;52;21476;-75
2021/12/21 03:04:41;;;;;;;6.28;2.30;;;-0.10;67.90;;;;;;2359951;52;21461;-76
2021/12/21 03:11:08;;;;;;;10.43;3.42;;;-0.20;67.80;;;;;;2375180;54;20940;-75
2021/12/21 03:14:03;;;;;;;8.13;3.40;;;-0.20;67.60;;;;;;2371622;54;20929;-75
2021/12/21 03:16:37;;;;;;;7.62;3.30;;;-0.20;67.60;;;;;;2372692;54;20973;-76
2021/12/21 03:19:07;;;;;;;7.72;3.00;;;-0.20;67.60;;;;;;2372321;54;21051;-76
2021/12/21 03:21:35;;;;;;;7.35;3.05;;;-0.20;67.60;;;;;;2422110;52;20933;-76
2021/12/21 03:24:03;;;;;;;8.02;3.33;;;-0.30;67.50;;;;;;2350376;53;20984;-76
2021/12/21 03:26:29;;;;;;;7.03;2.97;;;-0.30;67.50;;;;;;2387390;52;20971;-76
2021/12/21 03:28:55;;;;;;;8.77;3.60;;;-0.30;67.60;;;;;;2370065;54;20952;-76
2021/12/21 03:31:21;;;;;;;10.07;4.43;;;-0.30;67.60;;;;;;2431465;52;20931;-75
2021/12/21 03:33:48;;;;;;;6.85;3.00;;;-0.30;67.60;;;;;;2358564;53;21759;-76
2021/12/21 03:36:16;;;;;;;8.15;3.83;;;-0.30;67.60;;;;;;2397823;52;20947;-75
2021/12/21 03:38:52;;;;;;;10.65;4.20;;;-0.30;67.60;;;;;;2378776;53;20996;-75
2021/12/21 03:41:20;;;;;;;11.07;3.90;;;-0.40;67.60;;;;;;2518450;52;21004;-75
2021/12/21 03:43:47;;;;;;;10.60;3.33;;;-0.40;67.60;;;;;;2352415;53;20948;-76
2021/12/21 03:46:15;;;;;;;8.50;3.08;;;-0.40;67.60;;;;;;2366241;52;20955;-75
2021/12/21 03:48:45;;;;;;;7.57;2.85;;;-0.40;67.70;;;;;;2383235;52;21072;-76
2021/12/21 03:51:14;;;;;;;8.15;3.40;;;-0.40;67.80;;;;;;2372061;52;21691;-76
2021/12/21 03:53:41;;;;;;;6.75;3.28;;;-0.40;67.90;;;;;;2549556;52;20960;-76
2021/12/21 03:56:41;;;;;;;7.37;2.95;;;-0.40;67.90;;;;;;2353566;53;21444;-76
2021/12/21 03:59:08;;;;;;;7.18;3.12;;;-0.40;67.80;;;;;;2456409;52;20964;-75
2021/12/21 04:01:34;;;;;;;9.15;2.75;;;-0.40;67.70;;;;;;2359858;53;20960;-75
2021/12/21 04:04:00;;;;;;;10.75;3.05;;;-0.40;67.70;;;;;;2354536;53;21595;-76
2021/12/21 04:06:26;;;;;;;8.80;3.03;;;-0.40;67.80;;;;;;2397391;52;21033;-76
2021/12/21 04:08:53;;;;;;;8.32;3.30;;;-0.40;67.80;;;;;;2371803;54;21037;-76
2021/12/21 04:11:19;;;;;;;7.05;3.00;;;-0.50;67.70;;;;;;2599868;52;20932;-75
2021/12/21 04:13:48;;;;;;;5.68;2.33;;;-0.50;67.80;;;;;;2441508;52;20949;-75
2021/12/21 04:16:14;;;;;;;5.85;2.37;;;-0.50;67.80;;;;;;2371907;54;21264;-76
2021/12/21 04:18:41;;;;;;;6.68;3.20;;;-0.50;67.80;;;;;;2374550;54;20937;-76
2021/12/21 04:21:14;;;;;;;4.85;2.12;;;-0.50;67.80;;;;;;2446009;52;20980;-76
2021/12/21 04:23:41;;;;;;;5.75;2.58;;;-0.50;67.70;;;;;;2353581;53;20960;-76
2021/12/21 04:26:08;;;;;;;6.70;2.92;;;-0.50;67.70;;;;;;2445448;52;20944;-74
2021/12/21 04:28:35;;;;;;;6.15;2.30;;;-0.50;67.60;;;;;;2480358;52;20952;-75
2021/12/21 04:31:04;;;;;;;7.68;2.40;;;-0.50;67.60;;;;;;2395607;53;20904;-76
2021/12/21 04:33:31;;;;;;;6.85;2.47;;;-0.50;67.50;;;;;;2376201;52;21008;-75
2021/12/21 04:35:59;;;;;;;5.68;2.40;;;-0.50;67.50;;;;;;2449502;52;20928;-76
2021/12/21 04:38:29;;;;;;;7.57;2.78;;;-0.50;67.50;;;;;;2370270;53;20936;-75
2021/12/21 04:41:03;;;;;;;6.37;2.83;;;-0.60;67.40;;;;;;2453877;52;20953;-76
2021/12/21 04:43:30;;;;;;;6.53;2.62;;;-0.60;67.30;;;;;;2592176;52;21027;-76
2021/12/21 04:45:56;;;;;;;8.20;2.97;;;-0.60;67.30;;;;;;2417099;52;25237;-76
2021/12/21 04:48:23;;;;;;;8.18;3.10;;;-0.60;67.30;;;;;;2426509;52;21008;-75
2021/12/21 04:50:49;;;;;;;11.82;2.80;;;-0.60;67.30;;;;;;2353031;53;21004;-76
2021/12/21 04:53:15;;;;;;;6.25;2.92;;;-0.60;67.20;;;;;;2432631;52;20985;-75
2021/12/21 04:55:42;;;;;;;8.52;3.58;;;-0.70;67.10;;;;;;2550721;52;20959;-75
2021/12/21 04:58:08;;;;;;;7.65;3.05;;;-0.70;67.20;;;;;;2349676;53;21396;-75
2021/12/21 05:00:34;;;;;;;9.32;3.75;;;-0.70;67.10;;;;;;2358904;53;21527;-76
2021/12/21 05:03:01;;;;;;;6.07;3.03;;;-0.70;67.10;;;;;;2365743;53;20913;-76
2021/12/21 05:05:28;;;;;;;8.25;3.65;;;-0.80;67.00;;;;;;2371762;54;20976;-75
2021/12/21 05:08:06;;;;;;;8.98;3.90;;;-0.80;67.00;;;;;;2442819;52;21005;-76
2021/12/21 05:10:43;;;;;;;8.02;3.37;;;-0.80;67.10;;;;;;2353712;53;21356;-75
2021/12/21 05:13:11;;;;;;;9.48;3.90;;;-0.80;67.10;;;;;;2360722;53;21031;-75
2021/12/21 05:15:37;;;;;;;10.60;3.28;;;-0.80;67.10;;;;;;2464346;52;21067;-76
2021/12/21 05:18:03;;;;;;;8.52;3.92;;;-0.80;67.20;;;;;;2349439;53;21023;-75
2021/12/21 05:20:29;;;;;;;7.95;3.78;;;-0.80;67.30;;;;;;2371437;54;21056;-76
2021/12/21 05:22:57;;;;;;;8.65;3.45;;;-0.90;67.20;;;;;;2427412;52;20937;-76
2021/12/21 05:25:23;;;;;;;7.72;3.40;;;-0.90;67.20;;;;;;2426702;52;21505;-77
2021/12/21 05:27:50;;;;;;;7.37;3.42;;;-0.90;67.10;;;;;;2367391;53;21244;-76
2021/12/21 05:30:16;;;;;;;7.28;4.07;;;-0.90;67.00;;;;;;2417059;52;21001;-76
2021/12/21 05:32:42;;;;;;;8.05;4.03;;;-0.90;67.00;;;;;;2371650;54;20972;-75
2021/12/21 05:35:09;;;;;;;6.70;3.05;;;-0.90;67.10;;;;;;2482208;52;20980;-76
2021/12/21 05:37:37;;;;;;;10.02;4.12;;;-0.90;67.10;;;;;;2351969;53;21421;-76
2021/12/21 05:40:17;;;;;;;8.48;3.70;;;-1.00;67.00;;;;;;2374333;53;21001;-76
2021/12/21 05:42:45;;;;;;;9.18;4.15;;;-1.00;67.00;;;;;;2520399;53;21063;-76
2021/12/21 05:45:12;;;;;;;8.15;3.37;;;-1.00;66.90;;;;;;2354107;53;20945;-75
2021/12/21 05:47:38;;;;;;;10.70;4.07;;;-1.00;66.90;;;;;;2428048;52;20854;-75
2021/12/21 05:50:09;;;;;;;10.75;4.00;;;-1.00;66.90;;;;;;2420354;52;20957;-76
2021/12/21 05:52:35;;;;;;;9.00;4.20;;;-1.00;66.90;;;;;;2475151;52;20952;-76
2021/12/21 05:55:01;;;;;;;9.15;4.18;;;-1.00;66.90;;;;;;2351832;53;20983;-76
2021/12/21 05:57:28;;;;;;;8.38;4.22;;;-1.10;66.90;;;;;;2371272;54;20916;-75
2021/12/21 05:59:54;;;;;;;8.68;3.78;;;-1.10;66.90;;;;;;2368210;53;22098;-76
2021/12/21 06:02:21;;;;;;;10.13;4.82;;;-1.10;66.90;;;;;;2399757;52;20976;-75
2021/12/21 06:04:47;;;;;;;11.02;5.37;;;-1.10;67.10;;;;;;2352599;52;20970;-76
2021/12/21 06:07:14;;;;;;;12.07;4.72;;;-1.10;67.70;;;;;;2371800;53;20892;-75
2021/12/21 06:09:42;;;;;;;17.17;6.80;;;-1.10;68.40;;;;;;2354780;53;20901;-76
2021/12/21 06:13:10;;;;;;;17.23;6.80;;;-1.10;68.80;;;;;;2352432;53;20959;-75
2021/12/21 06:16:08;;;;;;;11.90;5.78;;;-1.00;69.10;;;;;;2427480;52;21004;-76
2021/12/21 06:25:23;;;;;;;8.95;4.07;;;-1.00;68.60;;;;;;2368284;53;21004;-75
2021/12/21 06:27:49;;;;;;;11.48;4.30;;;-1.00;68.00;;;;;;2366016;53;20917;-77
2021/12/21 06:30:17;;;;;;;7.32;3.72;;;-1.00;67.70;;;;;;2371950;54;21449;-76
2021/12/21 06:32:43;;;;;;;8.07;3.87;;;-1.00;67.60;;;;;;2372078;54;20938;-76
2021/12/21 06:35:10;;;;;;;16.48;5.10;;;-1.00;67.60;;;;;;2495945;52;20981;-75
2021/12/21 06:37:37;;;;;;;17.37;5.78;;;-1.10;67.60;;;;;;2371906;54;20988;-75
2021/12/21 06:40:04;;;;;;;15.90;5.18;;;-1.00;67.80;;;;;;2373976;52;21047;-76
2021/12/21 06:42:31;;;;;;;16.77;5.78;;;-1.10;67.80;;;;;;2361631;53;20988;-76
2021/12/21 06:44:59;;;;;;;13.45;5.90;;;-1.00;68.10;;;;;;2372147;54;21623;-75
2021/12/21 06:52:59;;;;;;;31.12;11.20;;;-1.00;68.40;;;;;;2365294;53;21072;-76
2021/12/21 06:55:25;;;;;;;34.88;17.20;;;-1.00;68.50;;;;;;2372506;54;20948;-75
2021/12/21 06:57:56;;;;;;;16.52;8.20;;;-0.90;68.60;;;;;;2352420;54;20952;-76
2021/12/21 07:00:23;;;;;;;17.87;6.82;;;-0.90;68.60;;;;;;2352658;53;20980;-75
2021/12/21 07:02:49;;;;;;;15.60;5.90;;;-0.90;68.50;;;;;;2352225;53;20924;-75
2021/12/21 07:05:16;;;;;;;13.23;5.45;;;-0.90;68.40;;;;;;2443647;52;21004;-75
2021/12/21 07:07:45;;;;;;;13.40;5.45;;;-0.80;69.10;;;;;;2353516;53;21668;-75
2021/12/21 07:10:21;;;;;;;10.55;4.50;;;-0.80;68.30;;;;;;2371871;53;21519;-75
2021/12/21 07:20:44;;;;;;;12.93;5.20;;;-0.80;67.80;;;;;;2357925;53;21024;-75
2021/12/21 07:23:11;;;;;;;11.88;4.90;;;-0.80;67.70;;;;;;2382960;52;21020;-75
2021/12/21 07:25:38;;;;;;;13.65;5.18;;;-0.80;67.60;;;;;;2351910;53;21004;-75
2021/12/21 07:28:05;;;;;;;14.52;5.68;;;-0.80;67.50;;;;;;2402902;52;20997;-76
2021/12/21 07:30:31;;;;;;;16.62;5.60;;;-0.80;67.30;;;;;;2351035;53;21413;-75
2021/12/21 07:32:57;;;;;;;10.02;5.22;;;-0.80;67.30;;;;;;2352957;53;20944;-75
2021/12/21 07:35:24;;;;;;;19.80;7.45;;;-0.80;67.20;;;;;;2426325;52;21736;-76
2021/12/21 07:37:50;;;;;;;21.65;9.13;;;-0.80;67.20;;;;;;2359446;53;20980;-75
2021/12/21 07:40:17;;;;;;;24.15;10.82;;;-0.80;67.20;;;;;;2414693;52;22325;-76
2021/12/21 07:42:43;;;;;;;24.58;10.32;;;-0.80;67.30;;;;;;2386173;52;20980;-75
2021/12/21 07:45:10;;;;;;;50.97;15.02;;;-0.80;67.50;;;;;;2359843;53;21016;-75
2021/12/21 07:47:36;;;;;;;36.95;12.80;;;-0.80;67.60;;;;;;2346418;53;21039;-75
2021/12/21 07:50:04;;;;;;;37.00;12.30;;;-0.80;67.80;;;;;;2363846;53;21048;-76
2021/12/21 07:52:30;;;;;;;25.77;9.57;;;-0.70;68.00;;;;;;2354356;53;21004;-76
2021/12/21 07:54:57;;;;;;;20.27;8.07;;;-0.70;68.10;;;;;;2358092;53;20948;-76
2021/12/21 07:57:23;;;;;;;25.62;8.52;;;-0.70;68.20;;;;;;2364115;53;21785;-75
2021/12/21 07:59:51;;;;;;;22.40;8.65;;;-0.70;68.30;;;;;;2596716;52;21350;-75
2021/12/21 08:02:17;;;;;;;24.02;8.63;;;-0.60;68.50;;;;;;2582573;52;20936;-75
2021/12/21 08:04:44;;;;;;;24.35;9.07;;;-0.60;68.50;;;;;;2379241;53;20929;-75
2021/12/21 08:07:15;;;;;;;21.25;8.05;;;-0.60;68.50;;;;;;2367272;53;20968;-76
2021/12/21 08:09:46;;;;;;;19.42;7.30;;;-0.60;68.50;;;;;;2346854;53;21482;-75
2021/12/21 08:12:15;;;;;;;16.12;7.12;;;-0.50;68.50;;;;;;2352174;53;20936;-75
2021/12/21 08:14:51;;;;;;;12.75;6.72;;;-0.50;68.50;;;;;;2368029;53;20933;-75
2021/12/21 08:17:18;;;;;;;12.65;5.82;;;-0.40;68.60;;;;;;2365681;53;20957;-76
2021/12/21 08:19:45;;;;;;;12.55;6.10;;;-0.40;68.70;;;;;;2349315;53;21461;-75
2021/12/21 08:22:12;;;;;;;16.12;8.05;;;-0.40;68.80;;;;;;2456609;52;21832;-75
2021/12/21 08:24:42;;;;;;;24.17;7.33;;;-0.30;69.10;;;;;;2327251;53;1319222;-75
2021/12/21 08:27:08;;;;;;;19.90;7.12;;;-0.30;69.10;;;;;;2370754;53;20979;-76
2021/12/21 08:29:35;;;;;;;16.48;6.75;;;-0.30;69.10;;;;;;2393715;53;20946;-76
2021/12/21 08:32:01;;;;;;;20.83;7.57;;;-0.20;69.20;;;;;;2343286;53;21536;-75
2021/12/21 08:34:28;;;;;;;18.35;6.97;;;-0.20;69.10;;;;;;2366918;52;21044;-75
2021/12/21 08:36:55;;;;;;;14.30;6.47;;;-0.10;69.00;;;;;;2371826;54;20940;-75
2021/12/21 08:39:23;;;;;;;20.95;6.47;;;-0.10;68.90;;;;;;2371098;54;20912;-76
2021/12/21 08:41:56;;;;;;;14.20;7.12;;;-0.10;68.80;;;;;;2409421;52;20924;-76
2021/12/21 08:44:24;;;;;;;16.92;6.82;;;0.00;68.90;;;;;;2350433;53;20905;-76
2021/12/21 08:46:50;;;;;;;11.38;5.95;;;0.00;69.00;;;;;;2441884;52;20993;-76
2021/12/21 08:49:16;;;;;;;11.93;6.05;;;0.10;69.20;;;;;;2515036;52;21836;-75
2021/12/21 08:51:43;;;;;;;16.42;6.95;;;0.10;69.40;;;;;;2458335;52;20936;-75
2021/12/21 08:54:11;;;;;;;12.63;6.05;;;0.20;69.60;;;;;;2350175;53;20996;-75
2021/12/21 08:56:37;;;;;;;14.85;5.85;;;0.30;70.50;;;;;;2371269;54;21056;-75
2021/12/21 08:59:04;;;;;;;15.02;6.40;;;0.30;69.70;;;;;;2370766;54;21047;-75
2021/12/21 09:01:31;;;;;;;17.62;6.43;;;0.40;69.70;;;;;;2624289;52;20952;-75
2021/12/21 09:03:57;;;;;;;12.65;5.95;;;0.40;69.60;;;;;;2375559;52;20924;-75
2021/12/21 09:06:24;;;;;;;14.18;5.80;;;0.50;69.60;;;;;;2350862;53;20912;-76
2021/12/21 09:08:50;;;;;;;12.18;6.50;;;0.50;69.50;;;;;;2472197;52;20937;-75
2021/12/21 09:11:16;;;;;;;15.35;6.45;;;0.60;69.40;;;;;;2624315;52;21746;-76
2021/12/21 09:13:43;;;;;;;15.27;6.80;;;0.60;69.10;;;;;;2356659;53;20932;-75
2021/12/21 09:16:10;;;;;;;14.60;5.93;;;0.60;68.90;;;;;;2366369;53;20972;-75
2021/12/21 09:18:36;;;;;;;21.65;7.22;;;0.60;68.90;;;;;;2358494;53;21002;-76
2021/12/21 09:21:04;;;;;;;17.33;6.72;;;0.60;68.80;;;;;;2352388;53;20912;-76
2021/12/21 09:23:30;;;;;;;12.43;7.03;;;0.70;69.00;;;;;;2363721;53;20969;-76
2021/12/21 09:25:57;;;;;;;14.05;7.20;;;0.70;69.10;;;;;;2371304;54;20913;-76
2021/12/21 09:28:23;;;;;;;16.95;7.22;;;0.70;69.80;;;;;;2371316;52;21929;-75
2021/12/21 09:30:50;;;;;;;15.70;7.35;;;0.80;69.30;;;;;;2370993;54;20976;-76
2021/12/21 09:33:16;;;;;;;21.60;8.40;;;0.80;69.40;;;;;;2469971;52;21016;-75
2021/12/21 09:35:43;;;;;;;18.77;8.13;;;0.90;69.70;;;;;;2353946;53;21864;-75
2021/12/21 09:38:10;;;;;;;16.02;7.95;;;0.90;69.70;;;;;;2371648;54;20965;-75
2021/12/21 09:40:39;;;;;;;20.40;8.35;;;1.00;69.90;;;;;;2386516;52;20929;-76
2021/12/21 09:43:12;;;;;;;16.73;7.82;;;1.00;69.80;;;;;;2351519;53;20885;-76
2021/12/21 09:45:40;;;;;;;21.17;9.82;;;1.10;69.80;;;;;;2623018;52;21012;-76
2021/12/21 09:48:06;;;;;;;18.02;8.20;;;1.10;69.70;;;;;;2369984;53;21009;-75
2021/12/21 09:50:33;;;;;;;15.70;7.30;;;1.20;69.80;;;;;;2369735;53;20924;-75
2021/12/21 09:53:10;;;;;;;16.12;7.47;;;1.20;69.80;;;;;;2386636;52;21629;-75
2021/12/21 09:55:40;;;;;;;18.02;7.45;;;1.30;69.80;;;;;;2418414;52;21024;-75
2021/12/21 09:58:08;;;;;;;16.67;7.70;;;1.40;69.90;;;;;;2356180;53;20937;-75
2021/12/21 10:00:41;;;;;;;15.40;7.15;;;1.40;70.00;;;;;;2565560;52;21052;-75
2021/12/21 10:03:10;;;;;;;16.48;7.80;;;1.40;70.00;;;;;;2358884;53;21408;-75
2021/12/21 10:05:38;;;;;;;16.75;7.62;;;1.50;70.10;;;;;;2356766;53;20932;-75
2021/12/21 10:08:15;;;;;;;15.18;7.90;;;1.50;69.90;;;;;;2353441;53;20952;-76
2021/12/21 10:10:49;;;;;;;16.12;8.00;;;1.60;69.70;;;;;;2389673;52;20962;-75
2021/12/21 10:13:21;;;;;;;24.73;8.70;;;1.60;69.60;;;;;;2438243;52;20964;-75
2021/12/21 10:15:50;;;;;;;23.60;9.40;;;1.70;69.70;;;;;;2390825;52;20905;-75
2021/12/21 10:18:33;;;;;;;22.20;8.82;;;1.70;69.70;;;;;;2394538;52;20921;-75
2021/12/21 10:21:02;;;;;;;20.42;9.32;;;1.70;69.50;;;;;;2348623;53;20932;-75
2021/12/21 10:23:32;;;;;;;16.48;8.40;;;1.80;69.50;;;;;;2434895;52;20980;-75
2021/12/21 10:26:10;;;;;;;19.55;8.90;;;1.80;69.40;;;;;;2468317;52;20972;-75
2021/12/21 10:28:43;;;;;;;23.33;9.95;;;1.80;69.50;;;;;;2358978;52;20991;-75
2021/12/21 10:38:02;;;;;;;20.90;10.57;;;1.90;69.60;;;;;;2349011;53;21232;-76
2021/12/21 10:40:29;;;;;;;18.87;8.73;;;2.00;68.90;;;;;;2353204;53;20915;-76
2021/12/21 10:43:03;;;;;;;21.00;9.93;;;2.00;69.20;;;;;;2393662;53;21019;-75
2021/12/21 10:45:37;;;;;;;24.98;9.50;;;2.00;69.20;;;;;;2415051;52;20916;-75
2021/12/21 10:48:05;;;;;;;17.52;9.25;;;2.00;69.30;;;;;;2362115;53;20992;-76
2021/12/21 10:50:33;;;;;;;22.35;9.68;;;2.00;69.40;;;;;;2357636;52;21449;-76
2021/12/21 10:53:02;;;;;;;20.35;10.02;;;2.00;69.40;;;;;;2360488;53;20952;-76
2021/12/21 10:55:34;;;;;;;63.65;21.17;;;2.10;69.40;;;;;;2350193;53;20913;-75
2021/12/21 10:58:25;;;;;;;34.67;15.63;;;2.10;69.40;;;;;;2371193;54;21753;-76
2021/12/21 11:00:58;;;;;;;31.10;13.35;;;2.10;69.20;;;;;;2462798;52;21064;-75
2021/12/21 11:03:37;;;;;;;25.50;11.27;;;2.10;69.30;;;;;;2369837;54;20996;-76
2021/12/21 11:06:17;;;;;;;23.70;10.43;;;2.20;69.20;;;;;;2360361;52;21682;-75
2021/12/21 11:08:46;;;;;;;22.17;10.77;;;2.20;69.20;;;;;;2476962;52;20976;-75
2021/12/21 11:11:29;;;;;;;21.17;8.85;;;2.20;69.10;;;;;;2350912;53;21445;-75
2021/12/21 11:14:32;;;;;;;19.48;9.05;;;2.20;69.10;;;;;;2355288;53;20896;-75
2021/12/21 11:17:00;;;;;;;21.25;10.38;;;2.20;69.10;;;;;;2503755;52;20991;-76
2021/12/21 11:19:29;;;;;;;22.77;14.20;;;2.20;69.00;;;;;;2368539;54;21198;-75
2021/12/21 11:21:57;;;;;;;31.60;21.08;;;2.20;69.00;;;;;;2409885;52;20993;-75
2021/12/21 11:24:26;;;;;;;23.73;11.52;;;2.20;69.10;;;;;;2361536;53;21019;-75
2021/12/21 11:26:53;;;;;;;23.55;10.65;;;2.30;69.20;;;;;;2351861;53;20940;-76
2021/12/21 11:29:19;;;;;;;19.35;9.20;;;2.30;69.10;;;;;;2397950;52;20996;-75
2021/12/21 11:31:48;;;;;;;20.33;9.32;;;2.30;69.10;;;;;;2369865;53;21019;-75
2021/12/21 11:34:19;;;;;;;18.08;8.68;;;2.40;69.40;;;;;;2404530;52;20929;-76
2021/12/21 11:39:32;;;;;;;22.80;9.63;;;2.40;69.60;;;;;;2436243;52;21409;-75
2021/12/21 11:42:02;;;;;;;20.62;9.27;;;2.50;69.60;;;;;;2476338;52;20941;-76
2021/12/21 11:45:18;;;;;;;18.60;9.38;;;2.50;69.50;;;;;;2355819;53;20927;-76
2021/12/21 11:48:15;;;;;;;21.05;9.27;;;2.50;69.00;;;;;;2369677;54;21055;-76
2021/12/21 11:50:59;;;;;;;16.92;8.73;;;2.60;69.00;;;;;;2350745;53;20916;-75
2021/12/21 11:53:28;;;;;;;19.25;8.73;;;2.50;68.80;;;;;;2371956;54;20936;-76
2021/12/21 11:55:55;;;;;;;19.12;9.50;;;2.60;68.90;;;;;;2507589;52;20933;-76
2021/12/21 11:58:29;;;;;;;16.50;8.45;;;2.60;68.90;;;;;;2360130;53;20997;-75
2021/12/21 12:01:00;;;;;;;17.70;8.82;;;2.60;68.90;;;;;;2587532;52;20996;-76
2021/12/21 12:03:28;;;;;;;19.58;9.93;;;2.60;69.00;;;;;;2327094;54;20972;-75
2021/12/21 12:06:06;;;;;;;24.12;11.70;;;2.60;69.20;;;;;;2432560;52;21848;-75
2021/12/21 12:08:49;;;;;;;24.20;10.48;;;2.60;69.30;;;;;;2452307;52;20917;-75
2021/12/21 12:11:40;;;;;;;21.17;10.52;;;2.70;69.40;;;;;;2368554;54;21718;-75
2021/12/21 12:14:15;;;;;;;20.08;10.07;;;2.70;69.20;;;;;;2502462;52;21144;-75
2021/12/21 12:17:20;;;;;;;19.77;9.77;;;2.70;68.90;;;;;;2429781;52;20972;-75
2021/12/21 12:19:57;;;;;;;19.42;8.75;;;2.70;68.60;;;;;;2354818;53;20968;-75
2021/12/21 12:22:40;;;;;;;19.33;9.02;;;2.70;68.80;;;;;;2354826;53;20932;-75
2021/12/21 12:25:16;;;;;;;19.52;9.38;;;2.70;68.70;;;;;;2366302;53;20964;-75
2021/12/21 12:27:45;;;;;;;19.00;10.15;;;2.70;68.80;;;;;;2550817;52;20933;-75
2021/12/21 12:30:13;;;;;;;18.90;9.75;;;2.70;68.90;;;;;;2349151;53;20937;-75
2021/12/21 12:33:02;;;;;;;19.85;9.77;;;2.70;69.00;;;;;;2436223;52;21024;-75
2021/12/21 12:35:36;;;;;;;19.37;8.10;;;2.80;69.10;;;;;;2352388;53;20941;-75
2021/12/21 12:38:04;;;;;;;18.35;9.48;;;2.80;69.10;;;;;;2370930;53;20957;-75
2021/12/21 12:40:36;;;;;;;19.35;8.93;;;2.80;69.10;;;;;;2370141;54;20897;-75
2021/12/21 12:43:09;;;;;;;19.98;9.52;;;2.80;69.00;;;;;;2392087;52;21260;-75
2021/12/21 12:45:38;;;;;;;20.70;9.13;;;2.80;68.90;;;;;;2403775;52;21016;-75
2021/12/21 12:48:15;;;;;;;20.42;9.02;;;2.80;68.90;;;;;;2347377;53;21059;-75
2021/12/21 12:50:42;;;;;;;18.73;9.02;;;2.80;69.00;;;;;;2386281;52;21848;-75
2021/12/21 12:53:11;;;;;;;20.00;10.00;;;2.80;69.00;;;;;;2386360;52;20937;-75
2021/12/21 12:55:48;;;;;;;16.45;8.85;;;2.90;69.20;;;;;;2412514;52;20945;-75
2021/12/21 12:58:31;;;;;;;21.73;9.65;;;2.90;69.30;;;;;;2350450;52;22158;-75
2021/12/21 13:01:12;;;;;;;21.08;8.90;;;2.90;69.30;;;;;;2370164;54;20992;-75
2021/12/21 13:03:43;;;;;;;20.83;9.32;;;2.90;69.50;;;;;;2438490;52;20945;-76
2021/12/21 13:06:27;;;;;;;18.10;9.02;;;3.00;69.60;;;;;;2365950;53;20955;-75
2021/12/21 13:08:53;;;;;;;21.00;9.13;;;3.00;69.60;;;;;;2360414;52;22525;-75
2021/12/21 13:11:25;;;;;;;18.58;8.95;;;3.00;69.60;;;;;;2376706;52;21027;-75
2021/12/21 13:13:54;;;;;;;20.55;9.20;;;3.00;69.60;;;;;;2494059;52;21788;-75
2021/12/21 13:16:23;;;;;;;22.15;9.65;;;3.00;69.60;;;;;;2350256;53;20909;-75
2021/12/21 13:18:54;;;;;;;18.90;9.77;;;3.10;70.40;;;;;;2353200;53;21453;-75
2021/12/21 13:21:25;;;;;;;22.48;10.48;;;3.10;69.70;;;;;;2367805;53;21777;-75
2021/12/21 13:24:05;;;;;;;19.83;8.98;;;3.20;69.80;;;;;;2464773;52;20964;-75
2021/12/21 13:26:37;;;;;;;20.60;10.40;;;3.20;69.70;;;;;;2358774;53;20909;-75
2021/12/21 13:29:03;;;;;;;20.30;9.30;;;3.20;69.80;;;;;;2388193;52;20952;-75
2021/12/21 13:31:30;;;;;;;18.25;9.15;;;3.20;69.80;;;;;;2410456;52;21804;-75
2021/12/21 13:33:58;;;;;;;18.23;9.70;;;3.30;69.70;;;;;;2345291;53;21105;-75
2021/12/21 13:36:45;;;;;;;18.83;9.48;;;3.30;69.70;;;;;;2356097;53;20995;-75
2021/12/21 13:39:28;;;;;;;22.33;12.10;;;3.30;69.50;;;;;;2349619;53;21341;-75
2021/12/21 13:41:56;;;;;;;19.45;9.52;;;3.30;69.60;;;;;;2370564;54;21025;-75
2021/12/21 13:44:24;;;;;;;29.85;14.07;;;3.40;69.70;;;;;;2414432;52;21323;-75
2021/12/21 13:46:51;;;;;;;143.82;44.65;;;3.40;69.80;;;;;;2434664;52;20933;-75
2021/12/21 13:49:28;;;;;;;149.23;50.17;;;3.40;69.70;;;;;;2362250;52;20928;-75
2021/12/21 13:51:56;;;;;;;61.83;27.27;;;3.40;69.60;;;;;;2540998;52;21021;-75
2021/12/21 13:54:25;;;;;;;48.03;20.98;;;3.50;69.60;;;;;;2350049;53;20940;-75
2021/12/21 13:56:54;;;;;;;104.00;36.90;;;3.50;69.60;;;;;;2542936;52;20941;-74
2021/12/21 13:59:21;;;;;;;248.80;74.22;;;3.50;69.60;;;;;;2370560;53;21287;-75
2021/12/21 14:01:53;;;;;;;80.97;34.58;;;3.50;69.60;;;;;;2376538;52;20998;-75